Time;durP1;ratioP1;P1;durP2;ratioP2;P2;SDS_P1;SDS_P2;PMS_P1;PMS_P2;Temp;Humidity;BMP_temperature;BMP_pressure;BME280_temperature;BME280_humidity;BME280_pressure;Samples;Min_cycle;Max_cycle;Signal;HPM_P1;HPM_P2
2021/06/26 00:01:57;;;;;;;24.05;8.13;;;;;;;21.71;100.00;100462.31;1701486;84;20996;-86
2021/06/26 00:04:23;;;;;;;22.82;7.62;;;;;;;21.73;100.00;100459.44;1701528;84;21740;-83
2021/06/26 00:06:49;;;;;;;20.68;7.03;;;;;;;21.73;100.00;100456.69;1701261;84;21145;-80
2021/06/26 00:09:15;;;;;;;26.60;7.53;;;;;;;21.72;100.00;100454.30;1701629;84;20904;-82
2021/06/26 00:11:40;;;;;;;23.50;7.62;;;;;;;21.72;100.00;100455.67;1701658;84;21015;-83
2021/06/26 00:14:08;;;;;;;23.47;8.75;;;;;;;21.70;100.00;100456.00;1744404;81;20876;-83
2021/06/26 00:16:34;;;;;;;31.95;10.68;;;;;;;21.68;100.00;100461.05;1771796;81;21047;-84
2021/06/26 00:19:01;;;;;;;27.65;10.03;;;;;;;21.67;100.00;100460.00;1771710;80;21121;-83
2021/06/26 00:21:27;;;;;;;30.55;8.63;;;;;;;21.65;100.00;100455.41;1771674;80;21011;-88
2021/06/26 00:23:53;;;;;;;22.90;8.80;;;;;;;21.64;100.00;100453.23;1772027;81;21007;-83
2021/06/26 00:26:19;;;;;;;27.27;8.70;;;;;;;21.59;100.00;100458.13;1772008;80;20849;-80
2021/06/26 00:28:46;;;;;;;28.75;7.87;;;;;;;21.57;100.00;100450.26;1771694;80;21007;-83
2021/06/26 00:31:12;;;;;;;32.70;8.95;;;;;;;21.60;100.00;100453.69;1771816;80;21901;-81
2021/06/26 00:33:38;;;;;;;34.98;8.50;;;;;;;21.61;100.00;100455.86;1771777;80;20928;-83
2021/06/26 00:36:05;;;;;;;29.95;9.20;;;;;;;21.58;100.00;100452.42;1771519;80;21492;-83
2021/06/26 00:38:31;;;;;;;30.48;8.75;;;;;;;21.55;100.00;100461.55;1771791;80;21086;-83
2021/06/26 00:40:57;;;;;;;27.62;8.55;;;;;;;21.53;100.00;100456.99;1771652;80;20884;-80
2021/06/26 00:43:24;;;;;;;34.95;10.05;;;;;;;21.54;100.00;100459.16;1771716;80;21046;-83
2021/06/26 00:45:50;;;;;;;31.23;9.80;;;;;;;21.52;100.00;100456.74;1796591;77;20901;-83
2021/06/26 00:48:16;;;;;;;30.90;9.43;;;;;;;21.49;100.00;100460.73;1837627;77;20979;-83
2021/06/26 00:50:43;;;;;;;35.68;8.73;;;;;;;21.47;100.00;100457.52;1837433;77;21026;-80
2021/06/26 00:53:09;;;;;;;37.28;9.65;;;;;;;21.43;100.00;100460.14;1837448;77;20999;-80
2021/06/26 00:55:35;;;;;;;28.35;9.85;;;;;;;21.36;100.00;100459.89;1837496;77;20957;-83
2021/06/26 00:58:02;;;;;;;38.83;8.90;;;;;;;21.32;100.00;100452.05;1837397;77;20988;-83
2021/06/26 01:00:31;;;;;;;22.62;8.25;;;;;;;21.33;100.00;100458.58;1834774;77;21008;-85
2021/06/26 01:02:58;;;;;;;31.55;8.93;;;;;;;21.31;100.00;100451.83;1714134;83;21030;-80
2021/06/26 01:05:24;;;;;;;29.55;8.78;;;;;;;21.30;100.00;100448.29;1714256;83;21081;-82
2021/06/26 01:07:52;;;;;;;29.55;7.33;;;;;;;21.30;100.00;100450.23;1714297;83;21082;-82
2021/06/26 01:10:20;;;;;;;23.42;8.83;;;;;;;21.25;100.00;100451.23;1713995;83;21511;-80
2021/06/26 01:12:46;;;;;;;32.58;8.33;;;;;;;21.25;100.00;100458.08;1714366;83;21063;-82
2021/06/26 01:15:15;;;;;;;33.30;8.80;;;;;;;21.27;100.00;100465.98;1714423;83;21007;-80
2021/06/26 01:17:41;;;;;;;27.60;8.35;;;;;;;21.27;100.00;100466.78;1710415;83;21040;-82
2021/06/26 01:20:10;;;;;;;28.05;9.00;;;;;;;21.28;100.00;100468.38;1708989;84;21292;-82
2021/06/26 01:25:23;;;;;;;26.35;8.48;;;;;;;21.28;100.00;100461.52;1708650;83;21076;-84
2021/06/26 01:27:50;;;;;;;26.15;8.43;;;;;;;21.31;100.00;100465.53;1709759;82;20965;-79
2021/06/26 01:30:32;;;;;;;28.98;8.80;;;;;;;21.30;100.00;100456.52;1708799;84;21197;-86
2021/06/26 01:32:58;;;;;;;24.40;7.92;;;;;;;21.29;100.00;100457.63;1716066;82;21354;-80
2021/06/26 01:35:25;;;;;;;26.68;8.25;;;;;;;21.35;100.00;100456.86;1713520;82;21455;-81
2021/06/26 01:37:51;;;;;;;19.40;8.05;;;;;;;21.35;100.00;100460.97;1732257;82;21047;-81
2021/06/26 01:40:21;;;;;;;35.13;10.35;;;;;;;21.33;100.00;100461.33;1693972;83;21051;-82
2021/06/26 01:42:49;;;;;;;40.43;12.03;;;;;;;21.31;100.00;100464.16;1695485;84;21121;-82
2021/06/26 01:45:17;;;;;;;39.48;12.05;;;;;;;21.27;100.00;100465.98;1683373;82;21093;-82
2021/06/26 01:47:55;;;;;;;46.25;14.93;;;;;;;21.25;100.00;100462.19;1725513;81;21088;-82
2021/06/26 01:50:24;;;;;;;40.48;14.28;;;;;;;21.24;100.00;100465.28;1716451;82;21048;-82
2021/06/26 01:52:50;;;;;;;45.43;12.47;;;;;;;21.24;100.00;100462.55;1725685;82;21036;-78
2021/06/26 01:55:19;;;;;;;43.00;13.53;;;;;;;21.25;100.00;100465.51;1732678;82;21083;-82
2021/06/26 01:57:47;;;;;;;37.45;10.98;;;;;;;21.26;100.00;100470.64;1733124;82;21918;-82
2021/06/26 02:00:16;;;;;;;30.50;9.70;;;;;;;21.31;100.00;100468.28;1784556;79;21511;-82
2021/06/26 02:02:43;;;;;;;31.97;10.70;;;;;;;21.32;100.00;100462.47;1809904;79;20976;-81
2021/06/26 02:05:11;;;;;;;37.58;13.75;;;;;;;21.32;100.00;100456.99;1809652;79;21444;-81
2021/06/26 02:07:37;;;;;;;46.40;16.12;;;;;;;21.37;100.00;100453.26;1809239;79;21547;-85
2021/06/26 02:10:06;;;;;;;28.67;12.55;;;;;;;21.37;100.00;100450.52;1809574;79;21126;-82
2021/06/26 02:12:32;;;;;;;23.75;10.08;;;;;;;21.37;100.00;100448.34;1810028;79;20968;-82
2021/06/26 02:14:58;;;;;;;34.83;12.33;;;;;;;21.43;100.00;100446.42;1809577;79;21585;-80
2021/06/26 02:17:24;;;;;;;32.25;11.33;;;;;;;21.50;100.00;100445.88;1809608;79;20931;-81
2021/06/26 02:19:51;;;;;;;25.77;10.40;;;;;;;21.52;100.00;100440.28;1809724;79;21644;-81
2021/06/26 02:22:18;;;;;;;33.53;10.35;;;;;;;21.58;100.00;100441.45;1809360;79;21460;-82
2021/06/26 02:24:44;;;;;;;25.90;10.15;;;;;;;21.64;100.00;100446.95;1809416;79;21003;-82
2021/06/26 02:27:10;;;;;;;26.23;9.75;;;;;;;21.74;100.00;100448.72;1809609;79;21090;-82
2021/06/26 02:29:36;;;;;;;25.45;8.78;;;;;;;21.83;100.00;100455.48;1809514;79;22021;-82
2021/06/26 02:32:04;;;;;;;27.32;10.20;;;;;;;21.93;100.00;100453.66;1809551;79;21496;-81
2021/06/26 02:34:30;;;;;;;28.42;9.13;;;;;;;22.02;100.00;100462.38;1809536;79;21108;-82
2021/06/26 02:36:56;;;;;;;37.70;11.68;;;;;;;22.12;100.00;100460.00;1809437;79;21031;-82
2021/06/26 02:39:22;;;;;;;41.50;13.70;;;;;;;22.23;100.00;100457.05;1809660;79;21535;-82
2021/06/26 02:41:48;;;;;;;43.78;14.75;;;;;;;22.35;100.00;100463.70;1809657;79;20991;-82
2021/06/26 02:44:14;;;;;;;42.20;14.95;;;;;;;22.43;100.00;100458.09;1809741;79;21641;-81
2021/06/26 02:46:40;;;;;;;45.48;16.97;;;;;;;22.54;100.00;100450.20;1828826;77;21173;-81
2021/06/26 02:49:06;;;;;;;45.73;16.32;;;;;;;22.62;100.00;100447.13;1848148;77;21591;-82
2021/06/26 02:51:32;;;;;;;37.08;14.90;;;;;;;22.67;100.00;100449.61;1848554;77;20888;-81
2021/06/26 02:53:58;;;;;;;40.25;13.55;;;;;;;22.73;100.00;100442.73;1848360;77;20916;-80
2021/06/26 02:56:24;;;;;;;43.08;16.62;;;;;;;22.82;100.00;100453.02;1848280;77;20829;-82
2021/06/26 02:58:50;;;;;;;41.58;17.50;;;;;;;22.87;100.00;100452.79;1848228;77;21851;-81
2021/06/26 03:01:16;;;;;;;40.92;15.58;;;;;;;22.95;100.00;100450.31;1848383;77;20860;-82
2021/06/26 03:03:42;;;;;;;49.38;14.47;;;;;;;23.03;100.00;100450.72;1848373;77;20940;-82
2021/06/26 03:06:08;;;;;;;49.58;15.68;;;;;;;23.08;100.00;100449.11;1848169;77;21353;-81
2021/06/26 03:08:34;;;;;;;60.10;16.67;;;;;;;23.15;100.00;100453.47;1848273;77;21053;-82
2021/06/26 03:11:00;;;;;;;51.80;16.12;;;;;;;23.21;100.00;100453.44;1848190;77;21136;-81
2021/06/26 03:13:26;;;;;;;36.20;13.50;;;;;;;23.27;100.00;100454.00;1848163;77;21022;-82
2021/06/26 03:15:53;;;;;;;38.05;11.45;;;;;;;23.33;100.00;100452.02;1848422;77;20959;-83
2021/06/26 03:18:19;;;;;;;26.75;10.08;;;;;;;23.44;100.00;100450.95;1848082;77;20999;-82
2021/06/26 03:20:44;;;;;;;25.52;8.50;;;;;;;23.61;100.00;100446.28;1848142;77;20955;-79
2021/06/26 03:23:11;;;;;;;33.13;7.70;;;;;;;23.75;100.00;100446.70;1848447;77;21123;-83
2021/06/26 03:25:37;;;;;;;24.32;7.25;;;;;;;23.90;100.00;100444.53;1848211;77;21011;-82
2021/06/26 03:28:03;;;;;;;25.60;7.92;;;;;;;24.06;100.00;100439.61;1848167;77;21011;-82
2021/06/26 03:30:29;;;;;;;23.52;6.92;;;;;;;24.26;100.00;100442.09;1848302;77;20944;-82
2021/06/26 03:32:55;;;;;;;22.37;7.42;;;;;;;24.43;100.00;100435.45;1848161;77;20865;-79
2021/06/26 03:35:21;;;;;;;19.45;6.53;;;;;;;24.67;100.00;100435.01;1848417;77;21159;-82
2021/06/26 03:37:47;;;;;;;21.68;6.78;;;;;;;25.14;100.00;100428.56;1821432;77;20868;-83
2021/06/26 03:40:13;;;;;;;27.77;6.58;;;;;;;25.65;100.00;100430.34;1848318;77;20864;-82
2021/06/26 03:42:40;;;;;;;25.80;6.45;;;;;;;26.10;100.00;100425.45;1844403;77;21006;-81
2021/06/26 03:45:08;;;;;;;24.92;5.83;;;;;;;26.55;100.00;100433.48;1848393;77;20999;-82
2021/06/26 03:47:35;;;;;;;23.32;5.58;;;;;;;26.85;100.00;100426.59;1831265;77;21087;-81
2021/06/26 03:50:01;;;;;;;16.52;6.33;;;;;;;27.05;100.00;100423.10;1822836;78;21016;-82
2021/06/26 03:52:26;;;;;;;20.45;5.42;;;;;;;27.38;100.00;100425.69;1826433;78;20996;-83
2021/06/26 03:54:52;;;;;;;25.20;6.00;;;;;;;27.95;100.00;100420.77;1826355;78;20901;-82
2021/06/26 03:57:19;;;;;;;32.65;5.87;;;;;;;28.26;100.00;100416.65;1826426;78;20850;-83
2021/06/26 03:59:46;;;;;;;21.25;5.55;;;;;;;28.43;100.00;100419.38;1820046;78;21093;-83
2021/06/26 04:02:12;;;;;;;25.92;5.42;;;;;;;28.69;100.00;100423.90;1805699;78;21011;-83
2021/06/26 04:04:38;;;;;;;17.48;5.05;;;;;;;28.80;100.00;100418.42;1807328;78;20948;-81
2021/06/26 04:07:04;;;;;;;18.60;5.30;;;;;;;29.03;100.00;100414.58;1807865;78;21555;-83
2021/06/26 04:09:31;;;;;;;25.02;5.55;;;;;;;29.26;100.00;100415.66;1817714;78;21016;-83
2021/06/26 04:11:57;;;;;;;30.27;5.30;;;;;;;29.34;100.00;100419.45;1811129;78;21883;-86
2021/06/26 04:14:23;;;;;;;15.48;5.17;;;;;;;29.27;100.00;100408.34;1807746;78;20964;-81
2021/06/26 04:16:49;;;;;;;22.27;5.42;;;;;;;29.25;100.00;100404.36;1808687;78;20977;-84
2021/06/26 04:19:15;;;;;;;24.65;6.20;;;;;;;29.32;100.00;100411.31;1807683;78;21515;-83
2021/06/26 04:21:43;;;;;;;17.37;5.00;;;;;;;29.52;100.00;100405.61;1821078;77;20995;-84
2021/06/26 04:24:09;;;;;;;20.68;5.58;;;;;;;30.27;100.00;100403.53;1735377;81;22047;-81
2021/06/26 04:26:35;;;;;;;29.05;6.20;;;;;;;30.87;100.00;100394.25;1757243;81;21028;-84
2021/06/26 04:29:01;;;;;;;34.98;9.00;;;;;;;31.44;100.00;100393.19;1759902;81;21043;-84
2021/06/26 04:31:27;;;;;;;38.90;9.48;;;;;;;32.22;100.00;100389.63;1758776;81;21098;-84
2021/06/26 04:33:53;;;;;;;31.42;7.10;;;;;;;32.82;100.00;100386.80;1744795;81;20996;-84
2021/06/26 04:36:20;;;;;;;24.72;6.22;;;;;;;33.35;100.00;100389.51;1762923;80;21162;-86
2021/06/26 04:38:45;;;;;;;37.10;6.53;;;;;;;34.01;100.00;100380.34;1760116;81;21007;-84
2021/06/26 04:41:12;;;;;;;30.40;9.80;;;;;;;34.38;100.00;100385.66;1736996;80;20976;-84
2021/06/26 04:43:38;;;;;;;65.70;8.48;;;;;;;34.84;100.00;100377.59;1729870;83;21060;-84
2021/06/26 04:46:08;;;;;;;34.18;5.65;;;;;;;35.40;91.54;100380.38;1743366;80;21039;-85
2021/06/26 04:48:35;;;;;;;28.10;4.67;;;;;;;35.67;78.77;100373.77;1735816;81;21173;-86
2021/06/26 04:51:01;;;;;;;23.27;5.60;;;;;;;35.96;81.68;100375.86;1746330;81;21023;-83
2021/06/26 04:53:27;;;;;;;24.37;5.12;;;;;;;36.52;80.36;100380.61;1750149;82;20880;-85
2021/06/26 04:55:53;;;;;;;29.15;5.67;;;;;;;37.10;75.96;100378.35;1751776;81;20949;-85
2021/06/26 04:58:24;;;;;;;25.37;5.15;;;;;;;37.55;70.42;100375.17;1751762;81;21203;-88
2021/06/26 05:00:52;;;;;;;33.13;5.25;;;;;;;38.06;66.06;100368.83;1751503;81;21140;-85
2021/06/26 05:03:19;;;;;;;25.97;5.17;;;;;;;38.49;62.00;100362.33;1755282;81;20977;-84
2021/06/26 05:05:46;;;;;;;16.77;4.62;;;;;;;38.84;58.37;100353.16;1755356;81;20989;-84
2021/06/26 05:08:13;;;;;;;26.82;4.85;;;;;;;39.04;56.24;100347.96;1755043;81;21020;-84
2021/06/26 05:10:39;;;;;;;29.25;4.97;;;;;;;39.17;53.84;100337.20;1755424;81;21488;-84
2021/06/26 05:13:06;;;;;;;28.85;5.20;;;;;;;39.58;52.79;100340.17;1755364;81;21123;-87
2021/06/26 05:15:32;;;;;;;18.52;5.72;;;;;;;40.02;51.84;100340.56;1774659;80;20971;-86
2021/06/26 05:17:58;;;;;;;24.07;4.78;;;;;;;40.08;49.75;100330.21;1777003;79;21086;-86
2021/06/26 05:20:24;;;;;;;24.55;4.87;;;;;;;40.11;48.91;100332.88;1776865;80;21026;-85
2021/06/26 05:22:50;;;;;;;23.18;4.45;;;;;;;40.44;48.52;100328.63;1776865;79;21522;-86
2021/06/26 05:25:17;;;;;;;22.85;4.45;;;;;;;40.81;46.39;100329.36;1777426;79;20971;-86
2021/06/26 05:27:44;;;;;;;20.57;4.33;;;;;;;40.69;45.48;100328.94;1776645;80;21435;-87
2021/06/26 05:30:12;;;;;;;16.80;4.08;;;;;;;40.39;44.64;100325.83;1801544;79;21482;-89
2021/06/26 05:32:39;;;;;;;19.85;3.83;;;;;;;40.38;41.99;100329.26;1804524;79;20945;-87
2021/06/26 05:35:07;;;;;;;15.65;3.77;;;;;;;40.01;40.27;100334.77;1804414;79;21610;-88
2021/06/26 05:37:33;;;;;;;15.90;4.08;;;;;;;39.89;41.15;100334.45;1804156;79;21094;-88
2021/06/26 05:39:59;;;;;;;14.50;3.60;;;;;;;39.65;40.33;100329.20;1773177;79;20856;-91
2021/06/26 05:42:25;;;;;;;16.70;4.40;;;;;;;39.27;41.96;100336.00;1804636;79;21018;-85
2021/06/26 05:44:51;;;;;;;13.90;4.50;;;;;;;39.06;42.12;100334.80;1774117;79;20932;-86
2021/06/26 05:47:17;;;;;;;19.32;3.98;;;;;;;38.57;42.30;100336.88;1806853;79;21066;-86
2021/06/26 05:49:43;;;;;;;21.90;3.67;;;;;;;38.03;44.12;100340.81;1814919;78;21838;-84
2021/06/26 05:52:09;;;;;;;12.93;3.15;;;;;;;38.46;47.08;100337.27;1813565;79;20864;-85
2021/06/26 05:54:34;;;;;;;17.37;3.72;;;;;;;38.81;44.64;100329.50;1791781;79;20888;-83
2021/06/26 05:57:02;;;;;;;18.65;3.80;;;;;;;39.44;45.33;100326.66;1815348;79;21566;-86
2021/06/26 05:59:28;;;;;;;12.95;3.20;;;;;;;39.74;41.53;100323.59;1814968;79;20963;-85
2021/06/26 06:01:54;;;;;;;19.67;4.33;;;;;;;40.19;41.30;100307.97;1814071;77;21130;-88
2021/06/26 06:04:20;;;;;;;19.65;3.70;;;;;;;40.94;40.38;100310.13;1818944;77;20919;-85
2021/06/26 06:06:46;;;;;;;12.10;3.90;;;;;;;41.31;39.29;100306.53;1820327;77;20912;-85
2021/06/26 06:09:15;;;;;;;19.40;4.30;;;;;;;41.22;37.58;100297.32;1814340;79;20940;-84
2021/06/26 06:11:41;;;;;;;20.57;4.28;;;;;;;41.48;38.78;100291.37;1816199;77;21011;-86
2021/06/26 06:14:07;;;;;;;19.12;4.50;;;;;;;42.00;36.62;100297.44;1815137;77;22007;-91
2021/06/26 06:16:35;;;;;;;21.75;5.05;;;;;;;42.24;35.37;100293.11;1815218;79;20884;-85
2021/06/26 06:19:00;;;;;;;14.10;4.60;;;;;;;42.47;35.20;100294.32;1814831;78;21000;-86
2021/06/26 06:21:26;;;;;;;21.52;4.15;;;;;;;42.68;34.69;100282.42;1811531;79;20848;-86
2021/06/26 06:23:52;;;;;;;17.10;4.37;;;;;;;42.82;34.23;100286.68;1815201;79;21069;-83
2021/06/26 06:26:18;;;;;;;21.48;4.67;;;;;;;43.06;33.98;100277.23;1815255;78;21064;-85
2021/06/26 06:28:44;;;;;;;15.95;4.28;;;;;;;43.65;34.00;100270.57;1815285;79;20987;-85
2021/06/26 06:31:10;;;;;;;32.93;5.28;;;;;;;44.04;32.42;100273.11;1815426;79;20900;-90
2021/06/26 06:33:36;;;;;;;15.45;4.15;;;;;;;44.15;31.03;100272.58;1815204;79;20968;-85
2021/06/26 06:36:06;;;;;;;19.07;5.33;;;;;;;44.09;30.37;100272.36;1815272;79;20943;-86
2021/06/26 06:38:30;;;;;;;21.50;4.60;;;;;;;43.65;30.84;100267.09;1811230;79;21451;-86
2021/06/26 06:40:56;;;;;;;17.48;4.85;;;;;;;43.45;31.62;100268.52;1815298;79;20864;-86
2021/06/26 06:43:22;;;;;;;15.68;4.47;;;;;;;43.64;30.05;100270.44;1815369;79;20880;-86
2021/06/26 06:45:48;;;;;;;13.50;4.80;;;;;;;43.52;30.24;100264.59;1815370;79;20919;-87
2021/06/26 06:48:13;;;;;;;18.30;4.92;;;;;;;42.95;30.51;100263.69;1805861;78;21436;-84
2021/06/26 06:50:39;;;;;;;11.90;4.05;;;;;;;42.60;31.92;100265.05;1794086;80;21828;-83
2021/06/26 06:53:05;;;;;;;13.10;4.10;;;;;;;42.34;32.58;100257.16;1799472;79;20907;-87
2021/06/26 06:55:31;;;;;;;18.07;4.58;;;;;;;41.90;31.37;100265.59;1801530;79;20922;-86
2021/06/26 06:57:57;;;;;;;15.15;4.47;;;;;;;42.14;33.71;100260.63;1802984;79;20940;-85
2021/06/26 07:00:23;;;;;;;19.02;4.42;;;;;;;43.05;33.50;100262.92;1793927;80;20964;-85
2021/06/26 07:02:49;;;;;;;14.63;4.42;;;;;;;43.46;30.03;100255.88;1793992;79;21543;-86
2021/06/26 07:05:15;;;;;;;16.93;5.17;;;;;;;43.90;29.21;100254.20;1802618;79;20835;-87
2021/06/26 07:07:41;;;;;;;16.37;4.78;;;;;;;43.84;28.01;100248.34;1773052;79;21858;-85
2021/06/26 07:10:09;;;;;;;18.50;4.53;;;;;;;43.89;28.17;100244.14;1794909;79;20999;-91
2021/06/26 07:12:35;;;;;;;16.02;5.08;;;;;;;44.20;27.66;100236.31;1796930;79;21531;-85
2021/06/26 07:15:01;;;;;;;18.85;5.47;;;;;;;44.57;27.94;100229.16;1796049;79;21132;-84
2021/06/26 07:17:27;;;;;;;21.40;5.87;;;;;;;45.23;28.93;100232.94;1793893;79;20973;-87
2021/06/26 07:19:52;;;;;;;15.10;5.58;;;;;;;45.84;27.63;100228.11;1801957;77;20912;-86
2021/06/26 07:22:18;;;;;;;14.85;5.70;;;;;;;45.97;26.48;100234.09;1782521;79;20888;-82
2021/06/26 07:24:44;;;;;;;17.85;5.50;;;;;;;46.11;25.88;100230.88;1786687;77;21628;-85
2021/06/26 07:27:11;;;;;;;15.55;6.40;;;;;;;46.25;27.27;100226.23;1837352;77;21935;-87
2021/06/26 07:29:37;;;;;;;14.65;6.22;;;;;;;46.74;27.94;100216.74;1837189;77;20964;-86
2021/06/26 07:32:03;;;;;;;14.13;5.83;;;;;;;47.21;27.13;100214.67;1820431;77;20992;-87
2021/06/26 07:34:29;;;;;;;12.37;5.65;;;;;;;47.50;25.52;100209.75;1797008;79;20971;-80
2021/06/26 07:36:58;;;;;;;17.02;6.35;;;;;;;47.59;24.69;100209.31;1806748;79;20905;-84
2021/06/26 07:39:24;;;;;;;12.05;5.47;;;;;;;47.63;25.77;100209.17;1800396;79;20997;-92
2021/06/26 07:41:52;;;;;;;15.45;5.50;;;;;;;47.85;25.74;100206.05;1785550;79;20959;-91
2021/06/26 07:44:18;;;;;;;12.78;5.83;;;;;;;48.22;25.26;100210.59;1786167;79;21011;-92
2021/06/26 07:46:44;;;;;;;14.13;5.80;;;;;;;48.40;24.34;100210.55;1793673;79;20964;-88
2021/06/26 07:49:10;;;;;;;15.58;6.05;;;;;;;48.41;23.80;100209.89;1812623;78;20988;-94
2021/06/26 07:51:36;;;;;;;14.28;6.22;;;;;;;48.03;23.63;100211.10;1819630;78;21068;-90
2021/06/26 07:54:18;;;;;;;11.90;5.75;;;;;;;47.91;24.05;100206.13;1814832;79;37610;-94
2021/06/26 07:56:46;;;;;;;11.95;6.03;;;;;;;48.08;23.64;100204.57;1815050;79;21769;-89
2021/06/26 07:59:12;;;;;;;13.70;5.58;;;;;;;48.12;23.96;100209.33;1815011;79;20979;-92
2021/06/26 08:01:45;;;;;;;10.03;5.05;;;;;;;48.05;23.17;100200.58;1814212;77;21109;-90
2021/06/26 08:04:15;;;;;;;7.17;5.05;;;;;;;47.86;23.02;100203.31;1814787;79;21069;-92
2021/06/26 08:06:41;;;;;;;12.35;5.42;;;;;;;47.64;24.00;100206.42;1825179;77;20991;-80
2021/06/26 08:09:07;;;;;;;11.65;5.10;;;;;;;47.73;22.83;100193.91;1827882;77;21022;-82
2021/06/26 08:11:33;;;;;;;19.37;5.67;;;;;;;47.63;22.80;100208.40;1826482;77;20837;-79
2021/06/26 08:13:59;;;;;;;11.57;5.17;;;;;;;47.11;23.20;100202.79;1831178;77;20869;-80
2021/06/26 08:16:26;;;;;;;15.03;4.80;;;;;;;46.77;24.26;100199.23;1816435;77;21729;-79
2021/06/26 08:18:52;;;;;;;9.93;5.35;;;;;;;46.77;23.60;100203.52;1819163;77;21456;-81
2021/06/26 08:21:20;;;;;;;19.87;4.92;;;;;;;46.58;23.31;100209.76;1832976;77;20841;-81
2021/06/26 08:23:48;;;;;;;10.45;4.92;;;;;;;46.32;22.90;100220.02;1825116;77;21175;-82
2021/06/26 08:26:14;;;;;;;19.20;5.05;;;;;;;46.27;22.88;100217.95;1819070;77;21016;-81
2021/06/26 08:28:40;;;;;;;8.68;4.85;;;;;;;45.73;23.17;100223.16;1824387;77;21105;-81
2021/06/26 08:31:06;;;;;;;7.00;4.65;;;;;;;45.61;23.70;100226.51;1823969;77;21014;-81
2021/06/26 08:33:32;;;;;;;8.20;4.80;;;;;;;45.77;24.17;100222.28;1823798;77;20955;-79
2021/06/26 08:35:58;;;;;;;10.60;5.05;;;;;;;45.98;23.95;100225.70;1825836;77;20931;-83
2021/06/26 08:38:24;;;;;;;15.50;4.65;;;;;;;45.83;23.87;100234.31;1847687;77;20853;-83
2021/06/26 08:40:54;;;;;;;19.27;4.60;;;;;;;45.67;24.00;100230.91;1847547;77;21933;-84
2021/06/26 08:43:22;;;;;;;14.70;4.57;;;;;;;45.86;24.66;100229.80;1848282;77;21534;-82
2021/06/26 08:45:48;;;;;;;8.83;4.70;;;;;;;45.66;24.64;100232.88;1847696;77;21094;-83
2021/06/26 08:48:15;;;;;;;11.57;4.25;;;;;;;45.90;24.88;100237.47;1824664;77;21054;-82
2021/06/26 08:50:41;;;;;;;11.45;4.95;;;;;;;45.42;25.03;100244.02;1811753;77;20991;-83
2021/06/26 08:53:07;;;;;;;11.03;4.45;;;;;;;45.08;24.66;100231.03;1823280;78;21297;-84
2021/06/26 08:55:33;;;;;;;19.85;5.17;;;;;;;43.79;25.00;100234.20;1805017;78;20877;-80
2021/06/26 08:58:03;;;;;;;11.53;4.75;;;;;;;42.35;26.83;100233.84;1822413;78;21697;-83
2021/06/26 09:00:30;;;;;;;11.90;4.20;;;;;;;41.92;28.31;100239.78;1805988;78;21043;-80
2021/06/26 09:03:14;;;;;;;11.45;4.25;;;;;;;41.57;29.18;100243.06;1810236;78;21241;-83
2021/06/26 09:05:42;;;;;;;11.38;4.53;;;;;;;41.21;29.38;100233.52;1810007;77;21068;-85
2021/06/26 09:08:20;;;;;;;5.55;3.85;;;;;;;40.81;30.87;100230.43;1801911;78;21012;-80
2021/06/26 09:10:49;;;;;;;7.30;4.42;;;;;;;40.85;30.48;100224.73;1817608;78;21012;-81
2021/06/26 09:13:23;;;;;;;14.87;4.60;;;;;;;41.03;31.65;100213.18;1821913;78;21020;-82
2021/06/26 09:15:48;;;;;;;6.17;4.30;;;;;;;40.83;31.71;100207.50;1766872;80;21788;-81
2021/06/26 09:18:20;;;;;;;16.62;5.42;;;;;;;40.89;31.40;100204.80;1763941;79;22137;-81
2021/06/26 09:20:53;;;;;;;10.40;5.05;;;;;;;40.72;32.96;100207.23;1702449;81;21072;-82
2021/06/26 09:23:34;;;;;;;;;;;;;;;40.90;32.32;100206.99;1701263;83;21165;-88
2021/06/26 09:26:11;;;;;;;14.38;4.33;;;;;;;40.80;32.35;100202.00;1698423;82;20673;-83
2021/06/26 09:28:39;;;;;;;19.95;4.80;;;;;;;41.04;32.80;100176.59;1675359;82;21034;-82
2021/06/26 09:31:16;;;;;;;10.68;4.97;;;;;;;41.04;32.80;100176.59;1696814;83;21086;-82
2021/06/26 09:33:43;;;;;;;8.18;5.03;;;;;;;41.11;33.11;100191.80;1697438;84;21512;-82
2021/06/26 09:36:12;;;;;;;9.33;4.87;;;;;;;41.35;33.45;100182.52;1699013;83;21548;-81
2021/06/26 09:39:06;;;;;;;13.18;5.33;;;;;;;40.85;34.27;100192.87;1706745;82;21687;-87
2021/06/26 09:41:32;;;;;;;9.35;4.70;;;;;;;40.17;34.89;100181.96;1604383;87;22441;-83
2021/06/26 09:44:10;;;;;;;15.48;4.85;;;;;;;39.96;34.22;100180.92;1608080;87;21193;-85
2021/06/26 09:46:47;;;;;;;18.57;4.87;;;;;;;39.24;35.32;100183.23;1491216;93;21153;-82
2021/06/26 09:49:14;;;;;;;15.58;4.92;;;;;;;38.87;36.08;100189.45;1521528;91;21134;-81
2021/06/26 09:51:41;;;;;;;15.85;4.78;;;;;;;39.06;36.92;100199.50;1524232;93;21540;-83
2021/06/26 09:54:09;;;;;;;8.85;4.47;;;;;;;39.12;35.44;100189.80;1510796;93;21700;-83
2021/06/26 09:56:43;;;;;;;16.37;4.85;;;;;;;39.15;35.14;100205.78;1534695;93;21685;-82
2021/06/26 09:59:10;;;;;;;16.07;4.62;;;;;;;39.08;35.20;100199.19;1524027;93;21071;-80
2021/06/26 10:01:42;;;;;;;23.73;5.40;;;;;;;39.02;35.29;100201.69;1529278;93;21170;-83
2021/06/26 10:04:07;;;;;;;16.15;5.10;;;;;;;38.83;36.17;100208.66;1532935;93;21099;-81
2021/06/26 10:06:37;;;;;;;13.65;4.60;;;;;;;38.44;36.49;100200.36;1487536;94;21085;-81
2021/06/26 10:09:05;;;;;;;12.68;4.37;;;;;;;37.92;36.84;100208.30;1488863;94;21842;-83
2021/06/26 10:11:34;;;;;;;18.73;5.10;;;;;;;37.90;37.93;100214.22;1498639;95;21074;-79
2021/06/26 10:14:03;;;;;;;20.30;5.40;;;;;;;37.64;38.34;100203.70;1520207;94;21252;-84
2021/06/26 10:16:31;;;;;;;21.05;6.83;;;;;;;37.41;39.86;100209.09;1523459;94;21110;-83
2021/06/26 10:19:02;;;;;;;35.48;7.50;;;;;;;37.40;40.26;100202.69;1523588;94;21075;-83
2021/06/26 10:21:29;;;;;;;24.72;6.17;;;;;;;37.54;41.08;100202.84;1522946;94;21199;-83
2021/06/26 10:23:58;;;;;;;17.37;5.58;;;;;;;37.52;40.89;100198.91;1523395;94;21055;-84
2021/06/26 10:26:25;;;;;;;12.88;5.10;;;;;;;37.44;39.56;100208.95;1523425;94;21117;-81
2021/06/26 10:28:59;;;;;;;18.35;5.97;;;;;;;37.35;42.18;100219.34;1522374;94;21713;-83
2021/06/26 10:31:39;;;;;;;16.32;5.22;;;;;;;37.51;41.39;100219.23;1515571;94;21565;-84
2021/06/26 10:34:19;;;;;;;12.45;6.00;;;;;;;37.30;39.97;100222.12;1511723;94;21452;-82
2021/06/26 10:36:54;;;;;;;13.90;6.22;;;;;;;37.16;40.52;100212.77;1478018;95;21083;-83
2021/06/26 10:39:30;;;;;;;12.28;6.35;;;;;;;37.19;42.39;100215.45;1430451;98;21126;-83
2021/06/26 10:42:07;;;;;;;16.20;5.47;;;;;;;37.21;42.32;100221.41;1459296;96;21237;-84
2021/06/26 10:44:54;;;;;;;18.95;5.58;;;;;;;37.02;42.62;100211.98;1439822;99;21156;-81
2021/06/26 10:47:42;;;;;;;27.32;5.80;;;;;;;36.90;41.54;100219.78;1479075;96;21177;-80
2021/06/26 10:50:17;;;;;;;16.23;5.50;;;;;;;36.32;44.06;100221.35;1459971;96;21111;-82
2021/06/26 10:52:55;;;;;;;12.13;5.80;;;;;;;36.47;45.75;100214.06;1408152;100;21162;-81
2021/06/26 10:55:35;;;;;;;14.78;5.67;;;;;;;36.93;44.30;100213.27;1400227;102;21121;-83
2021/06/26 10:58:04;;;;;;;15.25;5.37;;;;;;;36.96;47.49;100205.34;1394971;102;21117;-79
2021/06/26 11:00:37;;;;;;;17.10;5.80;;;;;;;37.31;44.78;100210.26;1401246;101;21114;-81
2021/06/26 11:03:06;;;;;;;20.72;6.47;;;;;;;37.05;45.16;100222.33;1370607;103;21164;-82
2021/06/26 11:05:36;;;;;;;19.70;6.30;;;;;;;36.68;47.43;100223.09;1384167;100;21131;-81
2021/06/26 11:08:16;;;;;;;14.53;5.45;;;;;;;36.46;46.74;100218.12;1422972;100;21171;-80
2021/06/26 11:11:00;;;;;;;13.60;5.87;;;;;;;36.39;47.65;100226.77;1388438;101;21581;-79
2021/06/26 11:13:29;;;;;;;20.12;5.87;;;;;;;36.18;50.88;100222.58;1380418;102;21340;-80
2021/06/26 11:16:08;;;;;;;15.70;5.87;;;;;;;36.15;52.06;100218.64;1383812;102;21769;-77
2021/06/26 11:18:35;;;;;;;28.23;6.28;;;;;;;36.16;51.90;100223.01;1393049;102;21591;-79